• Join FlightAware (Why Join?)
  • Login
  • US Flag 
11:07PM EDT


 

Airport Tracker/Info


-or-


 

Live Flight TrackerFlight Track Log ✈ CTL18 ✈ 09-Jul-2013 ✈ KMBS - KYIP

Flight Track Log - Related Links

Times and Time Zones

All times are in EDT time to prevent confusion due to time zone crossing. See the CTL18 flight status page for this flight to view local times or setup timezone preferences in your user account.

Time Position Orientation Groundspeed Altitude Reporting Facility
EDT Latitude Longitude Course Direction KTS MPH feet Rate Location/Type
08:25PM 43.3619 -84.0057 160° South  Level Estimated
08:26PM 43.3366 -83.9838 148° Southeast  Level FlightAware Approximate
08:27PM 43.3080 -83.9718 160° South  Level Estimated
08:28PM 43.2807 -83.9553 156° South  Level FlightAware Approximate
08:29PM 43.2533 -83.9388 156° South  Level FlightAware Approximate
08:30PM 43.2247 -83.9271 163° South  Level Estimated
08:31PM 43.1965 -83.9134 161° South  Level FlightAware Approximate
08:31PM 42.9964 -83.8194 160° South 178 205 5,100  Level Cleveland Center
08:32PM 43.1683 -83.8997 161° South  Level FlightAware Approximate
08:32PM 42.9592 -83.8003 159° South 179 206 5,100  Level Cleveland Center
08:33PM 43.1401 -83.8861 161° South  Level FlightAware Approximate
08:33PM 42.9183 -83.7756 156° South 181 208 5,100  Level Cleveland Center
08:34PM 43.1115 -83.8746 160° South  Level Estimated
08:34PM 42.8650 -83.7472 159° South 184 212 5,100  Level Cleveland Center
08:35PM 43.0835 -83.8603 160° South  Level FlightAware Approximate
08:35PM 42.8133 -83.7278 165° South 182 209 5,000  Level Cleveland Center
08:36PM 43.0555 -83.8461 160° South  Level FlightAware Approximate
08:36PM 42.7575 -83.7053 164° South 184 212 5,100  Level Cleveland Center
08:37PM 43.0275 -83.8318 160° South  Level FlightAware Approximate
08:37PM 42.7125 -83.6747 153° Southeast 185 213 5,000  Level Cleveland Center
08:38PM 42.6694 -83.6472 155° Southeast 182 209 5,100 -60 Climbing Cleveland Center
08:39PM 42.6181 -83.6192 158° South 186 214 4,900 -480 Descending Cleveland Center
08:41PM 42.5689 -83.5942 159° South 201 231 4,100 -780 Descending Cleveland Center
08:42PM 42.5092 -83.5661 161° South 203 234 3,400 -540 Descending Cleveland Center
08:43PM 42.4575 -83.5494 167° South 185 213 3,100 -240 Descending Cleveland Center
08:43PM 42.4117 -83.5417 173° South 174 200 3,000 -180 Descending Cleveland Center
08:44PM 42.3642 -83.5256 166° South 180 207 2,800 -540 Descending Cleveland Center
08:45PM 42.3122 -83.5203 176° South 182 209 2,000 -660 Descending Cleveland Center
08:46PM 42.2728 -83.5156 175° South 150 173 1,600 -480 Descending Cleveland Center
08:48PM 42.2386 -83.5193 160° South  Level FlightAware Approximate
08:55PM 42.2333 -83.5167 160° South  Level FlightAware Approximate
08:56PM 42.2393 -83.5310 160° South  Level Estimated
08:57PM 42.2393 -83.5310 160° South  Level Estimated